sensor_id;sensor_type;location;lat;lon;timestamp;pressure;altitude;pressure_sealevel;temperature;humidity
42621;BME280;28252;53.336;-6.298;2022-10-22T00:00:14;98951.81;;;24.10;85.42
42621;BME280;28252;53.336;-6.298;2022-10-22T00:00:46;98946.34;;;24.10;85.56
42621;BME280;28252;53.336;-6.298;2022-10-22T00:01:17;98948.22;;;24.09;85.46
42621;BME280;28252;53.336;-6.298;2022-10-22T00:01:49;98952.84;;;24.09;85.52
42621;BME280;28252;53.336;-6.298;2022-10-22T00:02:20;98949.31;;;24.08;85.31
42621;BME280;28252;53.336;-6.298;2022-10-22T00:02:51;98950.13;;;24.09;85.55
42621;BME280;28252;53.336;-6.298;2022-10-22T00:03:22;98948.50;;;24.08;85.41
42621;BME280;28252;53.336;-6.298;2022-10-22T00:03:53;98953.94;;;24.08;85.40
42621;BME280;28252;53.336;-6.298;2022-10-22T00:04:24;98953.09;;;24.07;85.37
42621;BME280;28252;53.336;-6.298;2022-10-22T00:04:55;98951.22;;;24.08;85.39
42621;BME280;28252;53.336;-6.298;2022-10-22T00:05:26;98950.38;;;24.07;85.20
42621;BME280;28252;53.336;-6.298;2022-10-22T00:05:57;98952.28;;;24.07;85.54
42621;BME280;28252;53.336;-6.298;2022-10-22T00:06:28;98955.00;;;24.07;85.64
42621;BME280;28252;53.336;-6.298;2022-10-22T00:06:59;98954.41;;;24.04;85.36
42621;BME280;28252;53.336;-6.298;2022-10-22T00:07:31;98950.59;;;24.05;85.39
42621;BME280;28252;53.336;-6.298;2022-10-22T00:08:02;98956.03;;;24.05;85.78
42621;BME280;28252;53.336;-6.298;2022-10-22T00:08:33;98956.03;;;24.05;85.66
42621;BME280;28252;53.336;-6.298;2022-10-22T00:09:04;98953.56;;;24.04;85.60
42621;BME280;28252;53.336;-6.298;2022-10-22T00:09:34;98959.84;;;24.04;85.62
42621;BME280;28252;53.336;-6.298;2022-10-22T00:10:06;98957.38;;;24.03;85.70
42621;BME280;28252;53.336;-6.298;2022-10-22T00:10:37;98967.41;;;24.02;85.48
42621;BME280;28252;53.336;-6.298;2022-10-22T00:11:09;98960.09;;;24.03;85.68
42621;BME280;28252;53.336;-6.298;2022-10-22T00:11:40;98956.53;;;24.02;85.60
42621;BME280;28252;53.336;-6.298;2022-10-22T00:12:12;98958.19;;;24.03;85.67
42621;BME280;28252;53.336;-6.298;2022-10-22T00:12:43;98958.41;;;24.02;85.59
42621;BME280;28252;53.336;-6.298;2022-10-22T00:13:14;98961.97;;;24.02;85.48
42621;BME280;28252;53.336;-6.298;2022-10-22T00:13:46;98961.97;;;24.02;85.51
42621;BME280;28252;53.336;-6.298;2022-10-22T00:14:17;98960.31;;;24.01;85.61
42621;BME280;28252;53.336;-6.298;2022-10-22T00:14:49;98960.31;;;24.01;85.49
42621;BME280;28252;53.336;-6.298;2022-10-22T00:15:20;98960.31;;;24.01;85.56
42621;BME280;28252;53.336;-6.298;2022-10-22T00:15:51;98959.50;;;24.01;85.48
42621;BME280;28252;53.336;-6.298;2022-10-22T00:16:22;98965.75;;;24.01;85.55
42621;BME280;28252;53.336;-6.298;2022-10-22T00:16:53;98964.94;;;24.01;85.82
42621;BME280;28252;53.336;-6.298;2022-10-22T00:17:25;98962.44;;;23.99;85.76
42621;BME280;28252;53.336;-6.298;2022-10-22T00:17:56;98963.28;;;24.00;85.73
42621;BME280;28252;53.336;-6.298;2022-10-22T00:18:27;98960.78;;;23.98;85.73
42621;BME280;28252;53.336;-6.298;2022-10-22T00:18:58;98965.16;;;23.99;85.58
42621;BME280;28252;53.336;-6.298;2022-10-22T00:19:29;98967.91;;;23.99;85.79
42621;BME280;28252;53.336;-6.298;2022-10-22T00:20:01;98971.66;;;23.98;85.89
42621;BME280;28252;53.336;-6.298;2022-10-22T00:20:32;98971.66;;;23.98;85.66
42621;BME280;28252;53.336;-6.298;2022-10-22T00:21:03;98967.31;;;23.97;85.69
42621;BME280;28252;53.336;-6.298;2022-10-22T00:21:34;98970.84;;;23.98;86.08
42621;BME280;28252;53.336;-6.298;2022-10-22T00:22:06;98972.75;;;23.97;85.68
42621;BME280;28252;53.336;-6.298;2022-10-22T00:22:38;98971.06;;;23.96;85.90
42621;BME280;28252;53.336;-6.298;2022-10-22T00:23:08;98969.19;;;23.97;86.02
42621;BME280;28252;53.336;-6.298;2022-10-22T00:23:40;98971.06;;;23.96;85.71
42621;BME280;28252;53.336;-6.298;2022-10-22T00:24:12;98972.13;;;23.95;85.70
42621;BME280;28252;53.336;-6.298;2022-10-22T00:24:42;98975.94;;;23.94;85.78
42621;BME280;28252;53.336;-6.298;2022-10-22T00:25:14;98970.50;;;23.94;85.73
42621;BME280;28252;53.336;-6.298;2022-10-22T00:25:45;98978.66;;;23.94;85.96
42621;BME280;28252;53.336;-6.298;2022-10-22T00:26:16;98977.81;;;23.94;85.82
42621;BME280;28252;53.336;-6.298;2022-10-22T00:26:47;98976.16;;;23.93;85.96
42621;BME280;28252;53.336;-6.298;2022-10-22T00:27:18;98972.59;;;23.92;86.21
42621;BME280;28252;53.336;-6.298;2022-10-22T00:27:48;98978.88;;;23.93;85.86
42621;BME280;28252;53.336;-6.298;2022-10-22T00:28:19;98978.03;;;23.92;85.85
42621;BME280;28252;53.336;-6.298;2022-10-22T00:28:50;98978.03;;;23.92;85.87
42621;BME280;28252;53.336;-6.298;2022-10-22T00:29:22;98982.66;;;23.92;85.98
42621;BME280;28252;53.336;-6.298;2022-10-22T00:29:53;98984.31;;;23.93;85.88
42621;BME280;28252;53.336;-6.298;2022-10-22T00:30:24;98980.75;;;23.92;86.30
42621;BME280;28252;53.336;-6.298;2022-10-22T00:30:58;98988.91;;;23.92;85.84
42621;BME280;28252;53.336;-6.298;2022-10-22T00:31:29;98982.88;;;23.90;85.98
42621;BME280;28252;53.336;-6.298;2022-10-22T00:32:01;98982.88;;;23.90;86.16
42621;BME280;28252;53.336;-6.298;2022-10-22T00:32:32;98977.44;;;23.90;86.25
42621;BME280;28252;53.336;-6.298;2022-10-22T00:33:03;98985.59;;;23.90;85.98
42621;BME280;28252;53.336;-6.298;2022-10-22T00:33:34;98980.16;;;23.90;86.17
42621;BME280;28252;53.336;-6.298;2022-10-22T00:34:04;98984.78;;;23.90;86.15
42621;BME280;28252;53.336;-6.298;2022-10-22T00:34:35;98982.31;;;23.88;86.00
42621;BME280;28252;53.336;-6.298;2022-10-22T00:35:06;98983.97;;;23.89;86.27
42621;BME280;28252;53.336;-6.298;2022-10-22T00:35:37;98985.84;;;23.89;85.91
42621;BME280;28252;53.336;-6.298;2022-10-22T00:36:08;98979.59;;;23.88;86.23
42621;BME280;28252;53.336;-6.298;2022-10-22T00:36:39;98986.06;;;23.87;86.04
42621;BME280;28252;53.336;-6.298;2022-10-22T00:37:10;98988.78;;;23.87;85.99
42621;BME280;28252;53.336;-6.298;2022-10-22T00:37:41;98991.50;;;23.87;86.19
42621;BME280;28252;53.336;-6.298;2022-10-22T00:38:12;98985.25;;;23.86;86.10
42621;BME280;28252;53.336;-6.298;2022-10-22T00:38:43;98988.78;;;23.87;86.10
42621;BME280;28252;53.336;-6.298;2022-10-22T00:39:15;98983.63;;;23.85;86.17
42621;BME280;28252;53.336;-6.298;2022-10-22T00:39:46;98992.59;;;23.86;86.15
42621;BME280;28252;53.336;-6.298;2022-10-22T00:40:17;98985.50;;;23.85;86.06
42621;BME280;28252;53.336;-6.298;2022-10-22T00:40:48;98993.66;;;23.85;86.13
42621;BME280;28252;53.336;-6.298;2022-10-22T00:41:19;98993.66;;;23.85;86.40
42621;BME280;28252;53.336;-6.298;2022-10-22T00:41:51;98987.16;;;23.86;86.42
42621;BME280;28252;53.336;-6.298;2022-10-22T00:42:23;98992.00;;;23.84;86.12
42621;BME280;28252;53.336;-6.298;2022-10-22T00:42:54;98996.38;;;23.85;86.19
42621;BME280;28252;53.336;-6.298;2022-10-22T00:43:25;98992.00;;;23.84;86.19
42621;BME280;28252;53.336;-6.298;2022-10-22T00:43:58;98990.34;;;23.83;86.42
42621;BME280;28252;53.336;-6.298;2022-10-22T00:45:21;98991.16;;;23.83;86.18
42621;BME280;28252;53.336;-6.298;2022-10-22T00:45:52;98996.59;;;23.83;86.17
42621;BME280;28252;53.336;-6.298;2022-10-22T00:46:23;98992.00;;;23.84;86.43
42621;BME280;28252;53.336;-6.298;2022-10-22T00:46:54;98994.97;;;23.82;86.44
42621;BME280;28252;53.336;-6.298;2022-10-22T00:47:26;99002.88;;;23.84;86.32
42621;BME280;28252;53.336;-6.298;2022-10-22T00:48:03;98991.41;;;23.82;86.33
42621;BME280;28252;53.336;-6.298;2022-10-22T00:48:35;98998.72;;;23.81;86.55
42621;BME280;28252;53.336;-6.298;2022-10-22T00:49:06;98997.88;;;23.81;86.42
42621;BME280;28252;53.336;-6.298;2022-10-22T00:49:37;99001.66;;;23.80;86.42
42621;BME280;28252;53.336;-6.298;2022-10-22T00:50:10;99001.66;;;23.80;86.40
42621;BME280;28252;53.336;-6.298;2022-10-22T00:50:42;99000.84;;;23.79;86.37
42621;BME280;28252;53.336;-6.298;2022-10-22T00:51:15;98996.22;;;23.80;86.58
42621;BME280;28252;53.336;-6.298;2022-10-22T00:51:46;99002.72;;;23.79;86.21
42621;BME280;28252;53.336;-6.298;2022-10-22T00:52:17;99005.44;;;23.79;86.67
42621;BME280;28252;53.336;-6.298;2022-10-22T00:52:48;99007.09;;;23.80;86.35
42621;BME280;28252;53.336;-6.298;2022-10-22T00:53:22;99003.78;;;23.78;86.34
42621;BME280;28252;53.336;-6.298;2022-10-22T00:53:55;99005.69;;;23.77;86.68
42621;BME280;28252;53.336;-6.298;2022-10-22T00:54:26;99009.00;;;23.79;86.46
42621;BME280;28252;53.336;-6.298;2022-10-22T00:54:57;99009.22;;;23.78;86.24
42621;BME280;28252;53.336;-6.298;2022-10-22T00:55:30;99005.44;;;23.79;86.53
42621;BME280;28252;53.336;-6.298;2022-10-22T00:56:02;99003.78;;;23.78;86.69
42621;BME280;28252;53.336;-6.298;2022-10-22T00:56:33;99009.22;;;23.78;86.78
42621;BME280;28252;53.336;-6.298;2022-10-22T00:57:04;99006.72;;;23.76;86.71
42621;BME280;28252;53.336;-6.298;2022-10-22T00:57:35;99018.44;;;23.77;86.76
42621;BME280;28252;53.336;-6.298;2022-10-22T00:58:06;99015.72;;;23.77;86.97
42621;BME280;28252;53.336;-6.298;2022-10-22T00:58:42;99015.72;;;23.77;86.78
42621;BME280;28252;53.336;-6.298;2022-10-22T00:59:14;99012.16;;;23.76;86.71
42621;BME280;28252;53.336;-6.298;2022-10-22T00:59:46;99021.16;;;23.77;86.44
42621;BME280;28252;53.336;-6.298;2022-10-22T01:00:17;99011.34;;;23.76;86.80
42621;BME280;28252;53.336;-6.298;2022-10-22T01:00:48;99016.78;;;23.76;86.58
42621;BME280;28252;53.336;-6.298;2022-10-22T01:01:22;99017.84;;;23.75;86.87
42621;BME280;28252;53.336;-6.298;2022-10-22T01:01:54;99018.69;;;23.75;86.57
42621;BME280;28252;53.336;-6.298;2022-10-22T01:02:25;99028.47;;;23.76;86.70
42621;BME280;28252;53.336;-6.298;2022-10-22T01:02:56;99021.63;;;23.74;86.71
42621;BME280;28252;53.336;-6.298;2022-10-22T01:03:27;99026.00;;;23.75;86.93
42621;BME280;28252;53.336;-6.298;2022-10-22T01:03:58;99018.06;;;23.73;86.76
42621;BME280;28252;53.336;-6.298;2022-10-22T01:04:29;99031.44;;;23.75;87.00
42621;BME280;28252;53.336;-6.298;2022-10-22T01:05:00;99028.72;;;23.75;86.72
42621;BME280;28252;53.336;-6.298;2022-10-22T01:05:32;99018.06;;;23.73;86.98
42621;BME280;28252;53.336;-6.298;2022-10-22T01:06:08;99033.56;;;23.73;86.90
42621;BME280;28252;53.336;-6.298;2022-10-22T01:06:40;99028.13;;;23.73;86.97
42621;BME280;28252;53.336;-6.298;2022-10-22T01:07:15;99037.31;;;23.72;86.90
42621;BME280;28252;53.336;-6.298;2022-10-22T01:07:47;99032.75;;;23.72;87.06
42621;BME280;28252;53.336;-6.298;2022-10-22T01:09:05;99030.84;;;23.73;87.19
42621;BME280;28252;53.336;-6.298;2022-10-22T01:09:49;99028.34;;;23.71;87.29
42621;BME280;28252;53.336;-6.298;2022-10-22T01:10:35;99035.69;;;23.71;87.27
42621;BME280;28252;53.336;-6.298;2022-10-22T01:11:14;99039.47;;;23.69;87.25
42621;BME280;28252;53.336;-6.298;2022-10-22T01:13:24;99039.47;;;23.69;87.08
42621;BME280;28252;53.336;-6.298;2022-10-22T01:14:09;99044.06;;;23.69;87.11
42621;BME280;28252;53.336;-6.298;2022-10-22T01:18:07;99049.16;;;23.65;87.61
42621;BME280;28252;53.336;-6.298;2022-10-22T01:19:56;99049.16;;;23.65;87.29
42621;BME280;28252;53.336;-6.298;2022-10-22T01:21:06;99048.31;;;23.65;87.42
42621;BME280;28252;53.336;-6.298;2022-10-22T01:21:33;99052.09;;;23.64;87.48
42621;BME280;28252;53.336;-6.298;2022-10-22T01:22:54;99050.44;;;23.63;87.40
42621;BME280;28252;53.336;-6.298;2022-10-22T01:24:46;99055.06;;;23.62;87.51
42621;BME280;28252;53.336;-6.298;2022-10-22T01:25:27;99057.78;;;23.62;87.35
42621;BME280;28252;53.336;-6.298;2022-10-22T01:26:14;99057.78;;;23.62;87.38
42621;BME280;28252;53.336;-6.298;2022-10-22T01:29:54;99057.19;;;23.60;87.39
42621;BME280;28252;53.336;-6.298;2022-10-22T01:30:23;99065.34;;;23.60;87.44
42621;BME280;28252;53.336;-6.298;2022-10-22T01:30:54;99060.94;;;23.59;87.46
42621;BME280;28252;53.336;-6.298;2022-10-22T01:31:31;99071.81;;;23.59;87.75
42621;BME280;28252;53.336;-6.298;2022-10-22T01:32:11;99061.75;;;23.60;87.82
42621;BME280;28252;53.336;-6.298;2022-10-22T01:32:49;99067.19;;;23.60;87.48
42621;BME280;28252;53.336;-6.298;2022-10-22T01:33:21;99066.59;;;23.58;87.66
42621;BME280;28252;53.336;-6.298;2022-10-22T01:33:53;99065.56;;;23.59;87.71
42621;BME280;28252;53.336;-6.298;2022-10-22T01:34:24;99068.50;;;23.57;87.55
42621;BME280;28252;53.336;-6.298;2022-10-22T01:35:00;99072.28;;;23.56;87.54
42621;BME280;28252;53.336;-6.298;2022-10-22T01:35:33;99067.69;;;23.57;87.82
42621;BME280;28252;53.336;-6.298;2022-10-22T01:36:06;99072.28;;;23.56;87.82
42621;BME280;28252;53.336;-6.298;2022-10-22T01:36:37;99070.63;;;23.55;87.72
42621;BME280;28252;53.336;-6.298;2022-10-22T01:37:09;99069.56;;;23.56;87.84
42621;BME280;28252;53.336;-6.298;2022-10-22T01:37:44;99074.41;;;23.54;87.76
42621;BME280;28252;53.336;-6.298;2022-10-22T01:38:17;99073.34;;;23.55;87.77
42621;BME280;28252;53.336;-6.298;2022-10-22T01:38:50;99077.94;;;23.55;87.72
42621;BME280;28252;53.336;-6.298;2022-10-22T01:39:21;99072.50;;;23.55;87.71
42621;BME280;28252;53.336;-6.298;2022-10-22T01:39:53;99078.78;;;23.55;87.96
42621;BME280;28252;53.336;-6.298;2022-10-22T01:40:25;99078.78;;;23.55;87.93
42621;BME280;28252;53.336;-6.298;2022-10-22T01:40:57;99079.03;;;23.54;87.83
42621;BME280;28252;53.336;-6.298;2022-10-22T01:41:28;99079.84;;;23.54;87.58
42621;BME280;28252;53.336;-6.298;2022-10-22T01:41:59;99079.84;;;23.54;87.97
42621;BME280;28252;53.336;-6.298;2022-10-22T01:42:29;99073.59;;;23.54;87.91
42621;BME280;28252;53.336;-6.298;2022-10-22T01:43:04;99081.75;;;23.54;87.94
42621;BME280;28252;53.336;-6.298;2022-10-22T01:43:35;99080.66;;;23.55;87.72
42621;BME280;28252;53.336;-6.298;2022-10-22T01:44:20;99077.34;;;23.53;87.74
42621;BME280;28252;53.336;-6.298;2022-10-22T01:44:51;99078.19;;;23.53;87.78
42621;BME280;28252;53.336;-6.298;2022-10-22T01:45:22;99085.28;;;23.54;87.77
42621;BME280;28252;53.336;-6.298;2022-10-22T01:45:55;99073.59;;;23.54;87.79
42621;BME280;28252;53.336;-6.298;2022-10-22T01:46:27;99080.06;;;23.53;87.74
42621;BME280;28252;53.336;-6.298;2022-10-22T01:47:13;99078.19;;;23.53;87.77
42621;BME280;28252;53.336;-6.298;2022-10-22T01:47:48;99082.78;;;23.53;88.00
42621;BME280;28252;53.336;-6.298;2022-10-22T01:48:44;99081.16;;;23.52;87.75
42621;BME280;28252;53.336;-6.298;2022-10-22T01:49:26;99081.97;;;23.52;87.89
42621;BME280;28252;53.336;-6.298;2022-10-22T01:51:32;99082.19;;;23.50;88.02
42621;BME280;28252;53.336;-6.298;2022-10-22T01:53:43;99090.34;;;23.50;87.82
42621;BME280;28252;53.336;-6.298;2022-10-22T01:55:35;99096.81;;;23.49;87.92
42621;BME280;28252;53.336;-6.298;2022-10-22T01:56:22;99093.28;;;23.49;87.84
42621;BME280;28252;53.336;-6.298;2022-10-22T01:57:06;99092.47;;;23.48;87.92
42621;BME280;28252;53.336;-6.298;2022-10-22T01:57:42;99090.56;;;23.49;88.02
42621;BME280;28252;53.336;-6.298;2022-10-22T01:58:17;99083.50;;;23.48;88.03
42621;BME280;28252;53.336;-6.298;2022-10-22T01:59:29;99098.13;;;23.47;88.28
42621;BME280;28252;53.336;-6.298;2022-10-22T02:00:04;99095.41;;;23.47;88.05
42621;BME280;28252;53.336;-6.298;2022-10-22T02:00:37;99101.66;;;23.47;87.87
42621;BME280;28252;53.336;-6.298;2022-10-22T02:03:20;99103.56;;;23.47;88.21
42621;BME280;28252;53.336;-6.298;2022-10-22T02:03:55;99100.03;;;23.46;88.27
42621;BME280;28252;53.336;-6.298;2022-10-22T02:04:32;99107.34;;;23.46;88.08
42621;BME280;28252;53.336;-6.298;2022-10-22T02:05:08;99107.34;;;23.46;88.19
42621;BME280;28252;53.336;-6.298;2022-10-22T02:06:13;99115.47;;;23.46;88.27
42621;BME280;28252;53.336;-6.298;2022-10-22T02:06:47;99097.31;;;23.46;88.31
42621;BME280;28252;53.336;-6.298;2022-10-22T02:07:21;99110.06;;;23.46;88.08
42621;BME280;28252;53.336;-6.298;2022-10-22T02:07:58;99112.78;;;23.46;88.18
42621;BME280;28252;53.336;-6.298;2022-10-22T02:08:31;99113.84;;;23.45;88.15
42621;BME280;28252;53.336;-6.298;2022-10-22T02:09:03;99112.78;;;23.46;88.06
42621;BME280;28252;53.336;-6.298;2022-10-22T02:09:34;99103.78;;;23.45;88.01
42621;BME280;28252;53.336;-6.298;2022-10-22T02:10:05;99110.06;;;23.46;87.93
42621;BME280;28252;53.336;-6.298;2022-10-22T02:10:38;99108.41;;;23.45;88.10
42621;BME280;28252;53.336;-6.298;2022-10-22T02:11:11;99108.41;;;23.45;88.04
42621;BME280;28252;53.336;-6.298;2022-10-22T02:11:43;99108.41;;;23.45;88.35
42621;BME280;28252;53.336;-6.298;2022-10-22T02:12:15;99112.19;;;23.44;88.19
42621;BME280;28252;53.336;-6.298;2022-10-22T02:12:49;99109.47;;;23.44;88.39
42621;BME280;28252;53.336;-6.298;2022-10-22T02:13:23;99108.41;;;23.45;88.36
42621;BME280;28252;53.336;-6.298;2022-10-22T02:13:56;99113.84;;;23.45;88.24
42621;BME280;28252;53.336;-6.298;2022-10-22T02:14:29;99108.41;;;23.45;88.47
42621;BME280;28252;53.336;-6.298;2022-10-22T02:15:01;99109.47;;;23.44;87.92
42621;BME280;28252;53.336;-6.298;2022-10-22T02:15:33;99114.91;;;23.44;88.30
42621;BME280;28252;53.336;-6.298;2022-10-22T02:16:07;99106.75;;;23.44;88.43
42621;BME280;28252;53.336;-6.298;2022-10-22T02:16:40;99105.91;;;23.43;88.41
42621;BME280;28252;53.336;-6.298;2022-10-22T02:17:14;99115.97;;;23.43;88.29
42621;BME280;28252;53.336;-6.298;2022-10-22T02:17:46;99112.19;;;23.44;88.43
42621;BME280;28252;53.336;-6.298;2022-10-22T02:18:20;99111.59;;;23.42;88.41
42621;BME280;28252;53.336;-6.298;2022-10-22T02:18:53;99117.84;;;23.42;88.46
42621;BME280;28252;53.336;-6.298;2022-10-22T02:19:27;99115.97;;;23.43;88.47
42621;BME280;28252;53.336;-6.298;2022-10-22T02:20:02;99114.31;;;23.42;88.67
42621;BME280;28252;53.336;-6.298;2022-10-22T02:20:36;99111.59;;;23.42;88.48
42621;BME280;28252;53.336;-6.298;2022-10-22T02:21:08;99112.63;;;23.41;88.69
42621;BME280;28252;53.336;-6.298;2022-10-22T02:21:39;99122.44;;;23.42;88.69
42621;BME280;28252;53.336;-6.298;2022-10-22T02:22:10;99117.84;;;23.42;88.65
42621;BME280;28252;53.336;-6.298;2022-10-22T02:22:41;99111.59;;;23.42;88.45
42621;BME280;28252;53.336;-6.298;2022-10-22T02:23:12;99119.72;;;23.42;88.41
42621;BME280;28252;53.336;-6.298;2022-10-22T02:23:43;99118.06;;;23.41;88.78
42621;BME280;28252;53.336;-6.298;2022-10-22T02:24:16;99123.28;;;23.42;88.54
42621;BME280;28252;53.336;-6.298;2022-10-22T02:24:47;99114.53;;;23.40;88.76
42621;BME280;28252;53.336;-6.298;2022-10-22T02:25:20;99125.16;;;23.42;88.52
42621;BME280;28252;53.336;-6.298;2022-10-22T02:25:53;99124.34;;;23.41;88.84
42621;BME280;28252;53.336;-6.298;2022-10-22T02:26:33;99126.00;;;23.42;88.55
42621;BME280;28252;53.336;-6.298;2022-10-22T02:27:28;99124.56;;;23.40;88.59
42621;BME280;28252;53.336;-6.298;2022-10-22T02:28:56;99123.50;;;23.41;88.60
42621;BME280;28252;53.336;-6.298;2022-10-22T02:29:38;99124.56;;;23.40;88.55
42621;BME280;28252;53.336;-6.298;2022-10-22T02:30:10;99121.00;;;23.39;88.70
42621;BME280;28252;53.336;-6.298;2022-10-22T02:30:45;99121.84;;;23.40;88.51
42621;BME280;28252;53.336;-6.298;2022-10-22T02:31:21;99127.28;;;23.40;88.62
42621;BME280;28252;53.336;-6.298;2022-10-22T02:31:54;99130.00;;;23.40;88.48
42621;BME280;28252;53.336;-6.298;2022-10-22T02:32:27;99123.72;;;23.39;88.70
42621;BME280;28252;53.336;-6.298;2022-10-22T02:33:17;99120.19;;;23.39;88.53
42621;BME280;28252;53.336;-6.298;2022-10-22T02:33:51;99122.91;;;23.39;88.55
42621;BME280;28252;53.336;-6.298;2022-10-22T02:34:25;99125.63;;;23.39;88.65
42621;BME280;28252;53.336;-6.298;2022-10-22T02:34:57;99131.06;;;23.39;88.81
42621;BME280;28252;53.336;-6.298;2022-10-22T02:35:29;99132.09;;;23.38;88.89
42621;BME280;28252;53.336;-6.298;2022-10-22T02:36:01;99129.38;;;23.38;88.75
42621;BME280;28252;53.336;-6.298;2022-10-22T02:36:32;99132.09;;;23.38;88.83
42621;BME280;28252;53.336;-6.298;2022-10-22T02:37:04;99134.00;;;23.37;88.98
42621;BME280;28252;53.336;-6.298;2022-10-22T02:37:36;99134.81;;;23.38;88.83
42621;BME280;28252;53.336;-6.298;2022-10-22T02:38:08;99134.81;;;23.38;88.63
42621;BME280;28252;53.336;-6.298;2022-10-22T02:38:39;99138.59;;;23.37;88.81
42621;BME280;28252;53.336;-6.298;2022-10-22T02:39:11;99136.72;;;23.37;88.76
42621;BME280;28252;53.336;-6.298;2022-10-22T02:39:44;99134.81;;;23.38;88.85
42621;BME280;28252;53.336;-6.298;2022-10-22T02:40:15;99132.34;;;23.36;88.63
42621;BME280;28252;53.336;-6.298;2022-10-22T02:40:46;99139.44;;;23.37;88.58
42621;BME280;28252;53.336;-6.298;2022-10-22T02:41:17;99140.50;;;23.36;88.85
42621;BME280;28252;53.336;-6.298;2022-10-22T02:41:49;99138.59;;;23.37;88.63
42621;BME280;28252;53.336;-6.298;2022-10-22T02:42:20;99136.13;;;23.35;88.66
42621;BME280;28252;53.336;-6.298;2022-10-22T02:42:51;99136.94;;;23.36;88.91
42621;BME280;28252;53.336;-6.298;2022-10-22T02:43:23;99140.72;;;23.35;88.75
42621;BME280;28252;53.336;-6.298;2022-10-22T02:43:54;99140.72;;;23.35;88.87
42621;BME280;28252;53.336;-6.298;2022-10-22T02:44:25;99135.31;;;23.35;88.87
42621;BME280;28252;53.336;-6.298;2022-10-22T02:44:56;99142.38;;;23.36;88.92
42621;BME280;28252;53.336;-6.298;2022-10-22T02:45:27;99147.00;;;23.35;88.78
42621;BME280;28252;53.336;-6.298;2022-10-22T02:45:58;99140.72;;;23.35;88.78
42621;BME280;28252;53.336;-6.298;2022-10-22T02:46:29;99151.59;;;23.35;89.07
42621;BME280;28252;53.336;-6.298;2022-10-22T02:47:00;99135.31;;;23.35;88.97
42621;BME280;28252;53.336;-6.298;2022-10-22T02:47:31;99147.00;;;23.35;88.79
42621;BME280;28252;53.336;-6.298;2022-10-22T02:48:02;99148.66;;;23.36;88.82
42621;BME280;28252;53.336;-6.298;2022-10-22T02:48:33;99145.94;;;23.36;88.80
42621;BME280;28252;53.336;-6.298;2022-10-22T02:49:03;99147.59;;;23.37;88.72
42621;BME280;28252;53.336;-6.298;2022-10-22T02:49:34;99154.09;;;23.36;88.64
42621;BME280;28252;53.336;-6.298;2022-10-22T02:50:05;99146.75;;;23.37;88.86
42621;BME280;28252;53.336;-6.298;2022-10-22T02:50:36;99154.09;;;23.36;88.79
42621;BME280;28252;53.336;-6.298;2022-10-22T02:51:07;99155.13;;;23.35;88.62
42621;BME280;28252;53.336;-6.298;2022-10-22T02:51:38;99153.25;;;23.36;89.00
42621;BME280;28252;53.336;-6.298;2022-10-22T02:52:09;99159.53;;;23.36;88.57
42621;BME280;28252;53.336;-6.298;2022-10-22T02:52:40;99153.25;;;23.36;88.77
42621;BME280;28252;53.336;-6.298;2022-10-22T02:53:11;99158.69;;;23.36;88.60
42621;BME280;28252;53.336;-6.298;2022-10-22T02:53:42;99159.53;;;23.36;88.79
42621;BME280;28252;53.336;-6.298;2022-10-22T02:54:13;99158.69;;;23.36;88.58
42621;BME280;28252;53.336;-6.298;2022-10-22T02:54:44;99153.25;;;23.36;88.67
42621;BME280;28252;53.336;-6.298;2022-10-22T02:55:15;99152.41;;;23.35;88.57
42621;BME280;28252;53.336;-6.298;2022-10-22T02:55:46;99150.53;;;23.36;88.79
42621;BME280;28252;53.336;-6.298;2022-10-22T02:56:16;99158.69;;;23.36;88.73
42621;BME280;28252;53.336;-6.298;2022-10-22T02:56:47;99157.84;;;23.35;88.75
42621;BME280;28252;53.336;-6.298;2022-10-22T02:57:18;99169.53;;;23.36;88.65
42621;BME280;28252;53.336;-6.298;2022-10-22T02:57:49;99160.56;;;23.35;88.69
42621;BME280;28252;53.336;-6.298;2022-10-22T02:58:20;99162.47;;;23.35;88.52
42621;BME280;28252;53.336;-6.298;2022-10-22T02:58:51;99166.22;;;23.34;88.55
42621;BME280;28252;53.336;-6.298;2022-10-22T02:59:22;99160.78;;;23.34;88.87
42621;BME280;28252;53.336;-6.298;2022-10-22T02:59:53;99160.78;;;23.34;88.61
42621;BME280;28252;53.336;-6.298;2022-10-22T03:00:24;99160.78;;;23.34;88.68
42621;BME280;28252;53.336;-6.298;2022-10-22T03:00:54;99166.22;;;23.34;88.84
42621;BME280;28252;53.336;-6.298;2022-10-22T03:01:25;99166.22;;;23.34;88.62
42621;BME280;28252;53.336;-6.298;2022-10-22T03:01:56;99168.34;;;23.31;88.76
42621;BME280;28252;53.336;-6.298;2022-10-22T03:02:27;99161.84;;;23.33;88.84
42621;BME280;28252;53.336;-6.298;2022-10-22T03:02:58;99168.13;;;23.33;88.61
42621;BME280;28252;53.336;-6.298;2022-10-22T03:03:29;99170.00;;;23.33;88.56
42621;BME280;28252;53.336;-6.298;2022-10-22T03:04:00;99165.63;;;23.31;88.63
42621;BME280;28252;53.336;-6.298;2022-10-22T03:04:31;99179.22;;;23.31;88.77
42621;BME280;28252;53.336;-6.298;2022-10-22T03:05:02;99174.84;;;23.30;88.65
42621;BME280;28252;53.336;-6.298;2022-10-22T03:05:33;99176.72;;;23.30;88.93
42621;BME280;28252;53.336;-6.298;2022-10-22T03:06:04;99171.28;;;23.30;88.71
42621;BME280;28252;53.336;-6.298;2022-10-22T03:06:35;99182.16;;;23.30;88.77
42621;BME280;28252;53.336;-6.298;2022-10-22T03:07:06;99175.91;;;23.29;88.83
42621;BME280;28252;53.336;-6.298;2022-10-22T03:07:37;99178.63;;;23.29;88.67
42621;BME280;28252;53.336;-6.298;2022-10-22T03:08:08;99175.06;;;23.29;88.68
42621;BME280;28252;53.336;-6.298;2022-10-22T03:08:39;99182.38;;;23.28;88.77
42621;BME280;28252;53.336;-6.298;2022-10-22T03:09:10;99176.13;;;23.28;88.83
42621;BME280;28252;53.336;-6.298;2022-10-22T03:09:41;99178.84;;;23.28;88.71
42621;BME280;28252;53.336;-6.298;2022-10-22T03:10:12;99178.84;;;23.28;88.96
42621;BME280;28252;53.336;-6.298;2022-10-22T03:10:43;99180.72;;;23.27;88.62
42621;BME280;28252;53.336;-6.298;2022-10-22T03:11:14;99182.38;;;23.28;88.37
42621;BME280;28252;53.336;-6.298;2022-10-22T03:11:45;99178.84;;;23.28;88.90
42621;BME280;28252;53.336;-6.298;2022-10-22T03:12:16;99188.88;;;23.27;88.50
42621;BME280;28252;53.336;-6.298;2022-10-22T03:12:47;99176.94;;;23.28;88.57